Ship Status Report: callsign BAREU51

sailwx.info

Track history (hours):
 
Tides and Currents Weather Stations Pressure Air Temp Water Temp Dewpoint Dewpoint Depression Visibility Wind Speed Wind Dir Waves Ship Positions

Callsign BAREU51 (name unknown)

Last reported at 2016-Dec-07 18:00 UTC. Time now 2016-Dec-07 22:21 UTC.
Position N 44°24' E 008°54'.

Barometer 1033.2 mb
Air temperature 12.8 ° C

Date/timePositionNaut miles runAvg speedWind from/ knotsBaromVisibWave heightAir tempDewpointWater temp
2016-Dec-07 18:00N 44°24' E 008°54'7 7.4 1033.2 12.8
2016-Dec-07 17:00N 44°18' E 009°00'2625.5 1032.2 15.2
2016-Dec-07 16:00N 43°54' E 009°12'2625.5 1031.8 14.4
2016-Dec-07 15:00N 43°30' E 009°24'2020.0 1031.2 15.1
2016-Dec-07 14:00N 43°12' E 009°36'2424.4 1030.7 15.9
2016-Dec-07 13:00N 42°48' E 009°42'2625.6 1030.5 15.6
2016-Dec-07 12:00N 42°24' E 009°54'2222.4 1030.3 15.3
2016-Dec-07 11:00N 42°06' E 010°12'2020.1 1030.2 14.9
2016-Dec-07 10:00N 41°48' E 010°24'2222.5 1030.2 14.0
2016-Dec-07 09:00N 41°30' E 010°42'2827.5 1029.7 15.8
2016-Dec-07 08:00N 41°06' E 011°00'2322.6 1028.3 15.5
2016-Dec-07 07:00N 40°48' E 011°18'2020.2 1026.5 16.3
2016-Dec-07 06:00N 40°30' E 011°30'2322.6 1026.2 15.6
2016-Dec-07 05:00N 40°12' E 011°48'2827.7 1024.3 15.0
2016-Dec-07 04:00N 39°48' E 012°06'2020.2 1023.4 15.7
2016-Dec-07 03:00N 39°30' E 012°18'2322.8 1024.2 15.9
2016-Dec-07 02:00N 39°12' E 012°36'2322.8 1023.6 16.7
2016-Dec-07 01:00N 38°54' E 012°54'2827.8 1023.2 18.4
2016-Dec-07 00:00N 38°30' E 013°12'2020.3 1023.2 17.8
2016-Dec-06 23:00N 38°12' E 013°24'0 0.0 1023.5 17.3
2016-Dec-06 18:00N 38°12' E 013°24'2020.3 1023.0 17.4
2016-Dec-06 17:00N 38°30' E 013°12'2322.8 1022.0 17.7
2016-Dec-06 16:00N 38°48' E 012°54'2020.3 1021.9 17.6
2016-Dec-06 15:00N 39°06' E 012°42'2322.8 1021.9 17.6
2016-Dec-06 14:00N 39°24' E 012°24'2020.2 1021.6 17.7
2016-Dec-06 13:00N 39°42' E 012°12'2322.7 1021.8 16.9
2016-Dec-06 12:00N 40°00' E 011°54'2020.2 1022.0 15.9
2016-Dec-06 11:00N 40°18' E 011°42'2322.6 1022.2 15.9
2016-Dec-06 10:00N 40°36' E 011°24'2322.6 1022.5 14.5
2016-Dec-06 09:00N 40°54' E 011°06'2625.6 1023.0 14.2
2016-Dec-06 08:00N 41°18' E 010°54'2222.5 1022.6 14.7
2016-Dec-06 07:00N 41°36' E 010°36'2020.1 1023.1 15.1
2016-Dec-06 06:00N 41°54' E 010°24'2222.4 1023.5 16.0
2016-Dec-06 05:00N 42°12' E 010°06'2222.4 1023.1 15.8
2016-Dec-06 04:00N 42°30' E 009°48'2424.4 1023.4 16.2
2016-Dec-06 03:00N 42°54' E 009°42'2020.0 1023.5 16.2
2016-Dec-06 02:00N 43°12' E 009°30'2424.4 1024.0 16.3
2016-Dec-06 01:00N 43°36' E 009°24'2020.0 1024.7 15.0
2016-Dec-06 00:00N 43°54' E 009°12'2625.5 1025.4 14.3
2016-Dec-05 23:00N 44°18' E 009°00'0 0.0 1027.2 12.6
2016-Dec-04 18:00N 44°18' E 009°00'2625.5 1023.5 12.9
2016-Dec-04 17:00N 43°54' E 009°12'2625.5 1023.2 13.9
2016-Dec-04 16:00N 43°30' E 009°24'2625.5 1022.5 15.2
2016-Dec-04 15:00N 43°06' E 009°36'2625.6 1021.9 15.1
2016-Dec-04 14:00N 42°42' E 009°48'2424.4 1021.8 15.0
2016-Dec-04 13:00N 42°18' E 009°54'2222.4 1021.2 15.5
2016-Dec-04 12:00N 42°00' E 010°12'3029.9 1022.1 16.3
2016-Dec-04 11:00N 41°36' E 010°36'2020.1 1022.3 16.2
2016-Dec-04 10:00N 41°18' E 010°48'2322.5 1022.1 15.5
2016-Dec-04 09:00N 41°00' E 011°06'2322.6 1022.3 17.0
2016-Dec-04 08:00N 40°42' E 011°24'2020.2 1021.9 17.0
2016-Dec-04 07:00N 40°24' E 011°36'2827.7 1021.3 15.8
2016-Dec-04 06:00N 40°00' E 011°54'2322.7 1020.3 16.1
2016-Dec-04 05:00N 39°42' E 012°12'2020.2 1020.5 16.3
2016-Dec-04 04:00N 39°24' E 012°24'2322.8 1020.0 16.0
2016-Dec-04 03:00N 39°06' E 012°42'2322.8 1020.2 16.2
2016-Dec-04 02:00N 38°48' E 013°00'2625.8 1020.0 16.6
2016-Dec-04 01:00N 38°24' E 013°12'2020.3 1019.7 16.8
2016-Dec-04 00:00N 38°06' E 013°24'0 0.0 1020.0 13.5
2016-Dec-03 18:00N 38°06' E 013°24'1918.6 1019.3 15.1
2016-Dec-03 17:00N 38°24' E 013°18'2322.9 1018.6 16.3
2016-Dec-03 16:00N 38°42' E 013°00'2827.8 1018.1 16.0
2016-Dec-03 15:00N 39°06' E 012°42'2020.3 1017.7 16.3
2016-Dec-03 14:00N 39°24' E 012°30'2322.7 1017.1 17.0
2016-Dec-03 13:00N 39°42' E 012°12'2322.7 1017.0 17.3
2016-Dec-03 12:00N 40°00' E 011°54'2322.7 1017.5 16.2
2016-Dec-03 11:00N 40°18' E 011°36'2625.7 1017.3 16.7
2016-Dec-03 10:00N 40°42' E 011°24'2322.6 1018.2 16.9
2016-Dec-03 09:00N 41°00' E 011°06'2322.5 1018.4 16.4
2016-Dec-03 08:00N 41°18' E 010°48'2020.1 1018.1 14.7
2016-Dec-03 07:00N 41°36' E 010°36'2222.5 1017.6 14.5
2016-Dec-03 06:00N 41°54' E 010°18'2222.4 1017.1 14.2
2016-Dec-03 05:00N 42°12' E 010°00'2625.6 1017.3 13.9
2016-Dec-03 04:00N 42°36' E 009°48'2020.0 1017.0 13.8
2016-Dec-03 03:00N 42°54' E 009°36'2424.4 1016.7 14.3
2016-Dec-03 02:00N 43°18' E 009°30'2020.0 1016.1 15.3
2016-Dec-03 01:00N 43°36' E 009°18'2424.4 1016.9 14.0
2016-Dec-03 00:00N 44°00' E 009°12'2020.0 1016.9 13.9
2016-Dec-02 23:00N 44°18' E 009°00'0 0.0 1016.3 13.7
2016-Dec-02 17:00N 44°18' E 009°00'2625.5 1015.6 13.6
2016-Dec-02 16:00N 43°54' E 009°12'2020.0 1015.2 13.0
2016-Dec-02 15:00N 43°36' E 009°24'2625.5 1014.5 13.8
2016-Dec-02 14:00N 43°12' E 009°36'2424.4 1014.3 15.0
2016-Dec-02 13:00N 42°48' E 009°42'2020.0 1017.1 14.8
2016-Dec-02 12:00N 42°30' E 009°54'2625.6 1017.5 14.4
2016-Dec-02 11:00N 42°06' E 010°06'2222.4 1017.5 13.9
2016-Dec-02 10:00N 41°48' E 010°24'2222.5 1018.3 14.1
2016-Dec-02 09:00N 41°30' E 010°42'2322.5 1018.4 14.6
2016-Dec-02 08:00N 41°12' E 011°00'2020.1 1017.9 14.6
2016-Dec-02 07:00N 40°54' E 011°12'2827.6 1018.1 14.3
2016-Dec-02 06:00N 40°30' E 011°30'2322.6 1018.8 14.5
2016-Dec-02 05:00N 40°12' E 011°48'2020.2 1019.6 14.7
2016-Dec-02 04:00N 39°54' E 012°00'2322.7 1020.4 14.5
2016-Dec-02 03:00N 39°36' E 012°18'2020.2 1020.8 15.0
2016-Dec-02 02:00N 39°18' E 012°30'2322.8 320 / 161021.5 14.8 5.6 6.7
2016-Dec-02 01:00N 39°00' E 012°48'2827.8 1022.3 14.7
2016-Dec-02 00:00N 38°36' E 013°06'2020.3 1022.5 14.8
2016-Dec-01 23:00N 38°18' E 013°18'8 1.5 1023.0 14.8
2016-Dec-01 18:00N 38°12' E 013°24'2827.8 1024.6 15.2
2016-Dec-01 17:00N 38°36' E 013°06'2322.8 1024.4 15.2
2016-Dec-01 16:00N 38°54' E 012°48'2827.8 1024.1 14.9
2016-Dec-01 15:00N 39°18' E 012°30'2322.7 1024.4 16.3
2016-Dec-01 14:00N 39°36' E 012°12'2625.7 1024.6 16.1
2016-Dec-01 13:00N 40°00' E 012°00'2322.7 1025.1 15.6
2016-Dec-01 12:00N 40°18' E 011°42'2827.6 1026.0 15.2
2016-Dec-01 11:00N 40°42' E 011°24'2322.6 1026.3 14.1
2016-Dec-01 10:00N 41°00' E 011°06'2322.5 1026.4 13.8
2016-Dec-01 09:00N 41°18' E 010°48'2222.5 1026.5 13.5
2016-Dec-01 08:00N 41°36' E 010°30'2625.6 1026.5 13.5
2016-Dec-01 07:00N 42°00' E 010°18'2222.4 1026.3 12.6
2016-Dec-01 06:00N 42°18' E 010°00'2020.1 1026.3 12.4
2016-Dec-01 05:00N 42°36' E 009°48'2020.0 1026.0 11.9
2016-Dec-01 04:00N 42°54' E 009°36'2424.4 1026.1 12.8
2016-Dec-01 03:00N 43°18' E 009°30'2625.5 1026.2 12.8
2016-Dec-01 02:00N 43°42' E 009°18'2020.0 1027.6 12.2
2016-Dec-01 01:00N 44°00' E 009°06'2424.4 1027.4 12.4
2016-Dec-01 00:00N 44°24' E 009°00'4 0.9 1027.9 11.4
2016-Nov-30 19:00N 44°24' E 008°54'1010.5 1030.7 9.6
2016-Nov-30 18:00N 44°18' E 009°06'2625.5 1030.3 11.2
2016-Nov-30 17:00N 43°54' E 009°18'2727.3 1030.0 11.7
2016-Nov-30 16:00N 43°30' E 009°36'2222.3 1030.3 11.0
2016-Nov-30 15:00N 43°12' E 009°54'2424.4 1030.1 11.5
2016-Nov-30 14:00N 42°48' E 010°00'2525.2 1029.5 11.8
2016-Nov-30 13:00N 42°30' E 010°24'2727.4 1030.5 12.1
2016-Nov-30 12:00N 42°06' E 010°42'2222.4 1029.6 11.7
2016-Nov-30 11:00N 41°48' E 011°00'2625.6 1029.4 11.0
2016-Nov-30 10:00N 41°24' E 011°12'2322.5 1029.2 11.1
2016-Nov-30 09:00N 41°06' E 011°30'2625.7 1028.9 12.0
2016-Nov-30 08:00N 40°42' E 011°42'2020.2 1028.2 11.8
2016-Nov-30 07:00N 40°24' E 011°54'2020.2 1028.1 11.5
2016-Nov-30 06:00N 40°06' E 012°06'2020.2 1026.8 12.6
2016-Nov-30 05:00N 39°48' E 012°18'2625.7 1026.7 11.9
2016-Nov-30 04:00N 39°24' E 012°30'2020.3 1025.3 11.9
2016-Nov-30 03:00N 39°06' E 012°42'2322.8 1024.4 11.3
2016-Nov-30 02:00N 38°48' E 013°00'2020.3 1024.4 11.5
2016-Nov-30 01:00N 38°30' E 013°12'2020.3 1023.3 11.4
2016-Nov-30 00:00N 38°12' E 013°24'6 1.2 1022.6 11.4
2016-Nov-29 19:00N 38°06' E 013°24'1818.0 1022.2 12.9
2016-Nov-29 18:00N 38°24' E 013°24'2424.0 1021.5 12.5
2016-Nov-29 17:00N 38°48' E 013°24'1918.6 1020.6 11.7
2016-Nov-29 16:00N 39°06' E 013°18'2424.4 1018.3 11.9
2016-Nov-29 15:00N 39°30' E 013°12'2020.2 1018.2 11.5
2016-Nov-29 14:00N 39°48' E 013°00'2424.4 1016.8 11.8
2016-Nov-29 13:00N 40°12' E 012°54'2020.2 1016.6 11.0
2016-Nov-29 12:00N 40°30' E 012°42'2322.6 1016.2 10.8
2016-Nov-29 11:00N 40°48' E 012°24'1818.1 1017.9 11.6
2016-Nov-29 10:00N 41°00' E 012°06'2322.5 1019.5 12.0
2016-Nov-29 09:00N 41°18' E 011°48'2222.5 1018.1 10.1
2016-Nov-29 08:00N 41°36' E 011°30'2222.5 1018.6 9.1
2016-Nov-29 07:00N 41°54' E 011°12'2222.4 1017.1 8.2
2016-Nov-29 06:00N 42°12' E 010°54'2121.4 1018.3 7.8
2016-Nov-29 05:00N 42°24' E 010°30'2222.4 1016.1 8.1
2016-Nov-29 04:00N 42°42' E 010°12'2020.0 1018.4 8.3
2016-Nov-29 03:00N 43°00' E 010°00'2020.0 1020.3 8.8
2016-Nov-29 02:00N 43°18' E 009°48'2020.0 1013.7 9.2
2016-Nov-29 01:00N 43°36' E 009°36'2222.2 1017.1 10.7
2016-Nov-29 00:00N 43°54' E 009°18'2020.0 1018.9 12.1
2016-Nov-28 23:00N 44°12' E 009°06'15 0.8 1018.1 13.0
2016-Nov-28 04:00N 44°24' E 008°54'4 0.5 1010.1 15.4
2016-Nov-27 19:00N 44°24' E 009°00'2424.4 1011.1 15.6
2016-Nov-27 18:00N 44°00' E 009°06'   1011.1 16.1
Track history (hours):
 
Tides and Currents Weather Stations Pressure Air Temp Water Temp Dewpoint Dewpoint Depression Visibility Wind Speed Wind Dir Waves Ship Positions

Callsign BAREU51 (name unknown)

Last reported at 2016-Dec-07 18:00 UTC. Time now 2016-Dec-07 22:21 UTC.
Position N 44°24' E 008°54'.

Barometer 1033.2 mb
Air temperature 12.8 ° C

Date/timePositionNaut miles runAvg speedWind from/ knotsBaromVisibWave heightAir tempDewpointWater temp
2016-Dec-07 18:00N 44°24' E 008°54'7 7.4 1033.2 12.8
2016-Dec-07 17:00N 44°18' E 009°00'2625.5 1032.2 15.2
2016-Dec-07 16:00N 43°54' E 009°12'2625.5 1031.8 14.4
2016-Dec-07 15:00N 43°30' E 009°24'2020.0 1031.2 15.1
2016-Dec-07 14:00N 43°12' E 009°36'2424.4 1030.7 15.9
2016-Dec-07 13:00N 42°48' E 009°42'2625.6 1030.5 15.6
2016-Dec-07 12:00N 42°24' E 009°54'2222.4 1030.3 15.3
2016-Dec-07 11:00N 42°06' E 010°12'2020.1 1030.2 14.9
2016-Dec-07 10:00N 41°48' E 010°24'2222.5 1030.2 14.0
2016-Dec-07 09:00N 41°30' E 010°42'2827.5 1029.7 15.8
2016-Dec-07 08:00N 41°06' E 011°00'2322.6 1028.3 15.5
2016-Dec-07 07:00N 40°48' E 011°18'2020.2 1026.5 16.3
2016-Dec-07 06:00N 40°30' E 011°30'2322.6 1026.2 15.6
2016-Dec-07 05:00N 40°12' E 011°48'2827.7 1024.3 15.0
2016-Dec-07 04:00N 39°48' E 012°06'2020.2 1023.4 15.7
2016-Dec-07 03:00N 39°30' E 012°18'2322.8 1024.2 15.9
2016-Dec-07 02:00N 39°12' E 012°36'2322.8 1023.6 16.7
2016-Dec-07 01:00N 38°54' E 012°54'2827.8 1023.2 18.4
2016-Dec-07 00:00N 38°30' E 013°12'2020.3 1023.2 17.8
2016-Dec-06 23:00N 38°12' E 013°24'0 0.0 1023.5 17.3
2016-Dec-06 18:00N 38°12' E 013°24'2020.3 1023.0 17.4
2016-Dec-06 17:00N 38°30' E 013°12'2322.8 1022.0 17.7
2016-Dec-06 16:00N 38°48' E 012°54'2020.3 1021.9 17.6
2016-Dec-06 15:00N 39°06' E 012°42'2322.8 1021.9 17.6
2016-Dec-06 14:00N 39°24' E 012°24'2020.2 1021.6 17.7
2016-Dec-06 13:00N 39°42' E 012°12'2322.7 1021.8 16.9
2016-Dec-06 12:00N 40°00' E 011°54'2020.2 1022.0 15.9
2016-Dec-06 11:00N 40°18' E 011°42'2322.6 1022.2 15.9
2016-Dec-06 10:00N 40°36' E 011°24'2322.6 1022.5 14.5
2016-Dec-06 09:00N 40°54' E 011°06'2625.6 1023.0 14.2
2016-Dec-06 08:00N 41°18' E 010°54'2222.5 1022.6 14.7
2016-Dec-06 07:00N 41°36' E 010°36'2020.1 1023.1 15.1
2016-Dec-06 06:00N 41°54' E 010°24'2222.4 1023.5 16.0
2016-Dec-06 05:00N 42°12' E 010°06'2222.4 1023.1 15.8
2016-Dec-06 04:00N 42°30' E 009°48'2424.4 1023.4 16.2
2016-Dec-06 03:00N 42°54' E 009°42'2020.0 1023.5 16.2
2016-Dec-06 02:00N 43°12' E 009°30'2424.4 1024.0 16.3
2016-Dec-06 01:00N 43°36' E 009°24'2020.0 1024.7 15.0
2016-Dec-06 00:00N 43°54' E 009°12'2625.5 1025.4 14.3
2016-Dec-05 23:00N 44°18' E 009°00'0 0.0 1027.2 12.6
2016-Dec-04 18:00N 44°18' E 009°00'2625.5 1023.5 12.9
2016-Dec-04 17:00N 43°54' E 009°12'2625.5 1023.2 13.9
2016-Dec-04 16:00N 43°30' E 009°24'2625.5 1022.5 15.2
2016-Dec-04 15:00N 43°06' E 009°36'2625.6 1021.9 15.1
2016-Dec-04 14:00N 42°42' E 009°48'2424.4 1021.8 15.0
2016-Dec-04 13:00N 42°18' E 009°54'2222.4 1021.2 15.5
2016-Dec-04 12:00N 42°00' E 010°12'3029.9 1022.1 16.3
2016-Dec-04 11:00N 41°36' E 010°36'2020.1 1022.3 16.2
2016-Dec-04 10:00N 41°18' E 010°48'2322.5 1022.1 15.5
2016-Dec-04 09:00N 41°00' E 011°06'2322.6 1022.3 17.0
2016-Dec-04 08:00N 40°42' E 011°24'2020.2 1021.9 17.0
2016-Dec-04 07:00N 40°24' E 011°36'2827.7 1021.3 15.8
2016-Dec-04 06:00N 40°00' E 011°54'2322.7 1020.3 16.1
2016-Dec-04 05:00N 39°42' E 012°12'2020.2 1020.5 16.3
2016-Dec-04 04:00N 39°24' E 012°24'2322.8 1020.0 16.0
2016-Dec-04 03:00N 39°06' E 012°42'2322.8 1020.2 16.2
2016-Dec-04 02:00N 38°48' E 013°00'2625.8 1020.0 16.6
2016-Dec-04 01:00N 38°24' E 013°12'2020.3 1019.7 16.8
2016-Dec-04 00:00N 38°06' E 013°24'0 0.0 1020.0 13.5
2016-Dec-03 18:00N 38°06' E 013°24'1918.6 1019.3 15.1
2016-Dec-03 17:00N 38°24' E 013°18'2322.9 1018.6 16.3
2016-Dec-03 16:00N 38°42' E 013°00'2827.8 1018.1 16.0
2016-Dec-03 15:00N 39°06' E 012°42'2020.3 1017.7 16.3
2016-Dec-03 14:00N 39°24' E 012°30'2322.7 1017.1 17.0
2016-Dec-03 13:00N 39°42' E 012°12'2322.7 1017.0 17.3
2016-Dec-03 12:00N 40°00' E 011°54'2322.7 1017.5 16.2
2016-Dec-03 11:00N 40°18' E 011°36'2625.7 1017.3 16.7
2016-Dec-03 10:00N 40°42' E 011°24'2322.6 1018.2 16.9
2016-Dec-03 09:00N 41°00' E 011°06'2322.5 1018.4 16.4
2016-Dec-03 08:00N 41°18' E 010°48'2020.1 1018.1 14.7
2016-Dec-03 07:00N 41°36' E 010°36'2222.5 1017.6 14.5
2016-Dec-03 06:00N 41°54' E 010°18'2222.4 1017.1 14.2
2016-Dec-03 05:00N 42°12' E 010°00'2625.6 1017.3 13.9
2016-Dec-03 04:00N 42°36' E 009°48'2020.0 1017.0 13.8
2016-Dec-03 03:00N 42°54' E 009°36'2424.4 1016.7 14.3
2016-Dec-03 02:00N 43°18' E 009°30'2020.0 1016.1 15.3
2016-Dec-03 01:00N 43°36' E 009°18'2424.4 1016.9 14.0
2016-Dec-03 00:00N 44°00' E 009°12'2020.0 1016.9 13.9
2016-Dec-02 23:00N 44°18' E 009°00'0 0.0 1016.3 13.7
2016-Dec-02 17:00N 44°18' E 009°00'2625.5 1015.6 13.6
2016-Dec-02 16:00N 43°54' E 009°12'2020.0 1015.2 13.0
2016-Dec-02 15:00N 43°36' E 009°24'2625.5 1014.5 13.8
2016-Dec-02 14:00N 43°12' E 009°36'2424.4 1014.3 15.0
2016-Dec-02 13:00N 42°48' E 009°42'2020.0 1017.1 14.8
2016-Dec-02 12:00N 42°30' E 009°54'2625.6 1017.5 14.4
2016-Dec-02 11:00N 42°06' E 010°06'2222.4 1017.5 13.9
2016-Dec-02 10:00N 41°48' E 010°24'2222.5 1018.3 14.1
2016-Dec-02 09:00N 41°30' E 010°42'2322.5 1018.4 14.6
2016-Dec-02 08:00N 41°12' E 011°00'2020.1 1017.9 14.6
2016-Dec-02 07:00N 40°54' E 011°12'2827.6 1018.1 14.3
2016-Dec-02 06:00N 40°30' E 011°30'2322.6 1018.8 14.5
2016-Dec-02 05:00N 40°12' E 011°48'2020.2 1019.6 14.7
2016-Dec-02 04:00N 39°54' E 012°00'2322.7 1020.4 14.5
2016-Dec-02 03:00N 39°36' E 012°18'2020.2 1020.8 15.0
2016-Dec-02 02:00N 39°18' E 012°30'2322.8 320 / 161021.5 14.8 5.6 6.7
2016-Dec-02 01:00N 39°00' E 012°48'2827.8 1022.3 14.7
2016-Dec-02 00:00N 38°36' E 013°06'2020.3 1022.5 14.8
2016-Dec-01 23:00N 38°18' E 013°18'8 1.5 1023.0 14.8
2016-Dec-01 18:00N 38°12' E 013°24'2827.8 1024.6 15.2
2016-Dec-01 17:00N 38°36' E 013°06'2322.8 1024.4 15.2
2016-Dec-01 16:00N 38°54' E 012°48'2827.8 1024.1 14.9
2016-Dec-01 15:00N 39°18' E 012°30'2322.7 1024.4 16.3
2016-Dec-01 14:00N 39°36' E 012°12'2625.7 1024.6 16.1
2016-Dec-01 13:00N 40°00' E 012°00'2322.7 1025.1 15.6
2016-Dec-01 12:00N 40°18' E 011°42'2827.6 1026.0 15.2
2016-Dec-01 11:00N 40°42' E 011°24'2322.6 1026.3 14.1
2016-Dec-01 10:00N 41°00' E 011°06'2322.5 1026.4 13.8
2016-Dec-01 09:00N 41°18' E 010°48'2222.5 1026.5 13.5
2016-Dec-01 08:00N 41°36' E 010°30'2625.6 1026.5 13.5
2016-Dec-01 07:00N 42°00' E 010°18'2222.4 1026.3 12.6
2016-Dec-01 06:00N 42°18' E 010°00'2020.1 1026.3 12.4
2016-Dec-01 05:00N 42°36' E 009°48'2020.0 1026.0 11.9
2016-Dec-01 04:00N 42°54' E 009°36'2424.4 1026.1 12.8
2016-Dec-01 03:00N 43°18' E 009°30'2625.5 1026.2 12.8
2016-Dec-01 02:00N 43°42' E 009°18'2020.0 1027.6 12.2
2016-Dec-01 01:00N 44°00' E 009°06'2424.4 1027.4 12.4
2016-Dec-01 00:00N 44°24' E 009°00'4 0.9 1027.9 11.4
2016-Nov-30 19:00N 44°24' E 008°54'1010.5 1030.7 9.6
2016-Nov-30 18:00N 44°18' E 009°06'2625.5 1030.3 11.2
2016-Nov-30 17:00N 43°54' E 009°18'2727.3 1030.0 11.7
2016-Nov-30 16:00N 43°30' E 009°36'2222.3 1030.3 11.0
2016-Nov-30 15:00N 43°12' E 009°54'2424.4 1030.1 11.5
2016-Nov-30 14:00N 42°48' E 010°00'2525.2 1029.5 11.8
2016-Nov-30 13:00N 42°30' E 010°24'2727.4 1030.5 12.1
2016-Nov-30 12:00N 42°06' E 010°42'2222.4 1029.6 11.7
2016-Nov-30 11:00N 41°48' E 011°00'2625.6 1029.4 11.0
2016-Nov-30 10:00N 41°24' E 011°12'2322.5 1029.2 11.1
2016-Nov-30 09:00N 41°06' E 011°30'2625.7 1028.9 12.0
2016-Nov-30 08:00N 40°42' E 011°42'2020.2 1028.2 11.8
2016-Nov-30 07:00N 40°24' E 011°54'2020.2 1028.1 11.5
2016-Nov-30 06:00N 40°06' E 012°06'2020.2 1026.8 12.6
2016-Nov-30 05:00N 39°48' E 012°18'2625.7 1026.7 11.9
2016-Nov-30 04:00N 39°24' E 012°30'2020.3 1025.3 11.9
2016-Nov-30 03:00N 39°06' E 012°42'2322.8 1024.4 11.3
2016-Nov-30 02:00N 38°48' E 013°00'2020.3 1024.4 11.5
2016-Nov-30 01:00N 38°30' E 013°12'2020.3 1023.3 11.4
2016-Nov-30 00:00N 38°12' E 013°24'6 1.2 1022.6 11.4
2016-Nov-29 19:00N 38°06' E 013°24'1818.0 1022.2 12.9
2016-Nov-29 18:00N 38°24' E 013°24'2424.0 1021.5 12.5
2016-Nov-29 17:00N 38°48' E 013°24'1918.6 1020.6 11.7
2016-Nov-29 16:00N 39°06' E 013°18'2424.4 1018.3 11.9
2016-Nov-29 15:00N 39°30' E 013°12'2020.2 1018.2 11.5
2016-Nov-29 14:00N 39°48' E 013°00'2424.4 1016.8 11.8
2016-Nov-29 13:00N 40°12' E 012°54'2020.2 1016.6 11.0
2016-Nov-29 12:00N 40°30' E 012°42'2322.6 1016.2 10.8
2016-Nov-29 11:00N 40°48' E 012°24'1818.1 1017.9 11.6
2016-Nov-29 10:00N 41°00' E 012°06'2322.5 1019.5 12.0
2016-Nov-29 09:00N 41°18' E 011°48'2222.5 1018.1 10.1
2016-Nov-29 08:00N 41°36' E 011°30'2222.5 1018.6 9.1
2016-Nov-29 07:00N 41°54' E 011°12'2222.4 1017.1 8.2
2016-Nov-29 06:00N 42°12' E 010°54'2121.4 1018.3 7.8
2016-Nov-29 05:00N 42°24' E 010°30'2222.4 1016.1 8.1
2016-Nov-29 04:00N 42°42' E 010°12'2020.0 1018.4 8.3
2016-Nov-29 03:00N 43°00' E 010°00'2020.0 1020.3 8.8
2016-Nov-29 02:00N 43°18' E 009°48'2020.0 1013.7 9.2
2016-Nov-29 01:00N 43°36' E 009°36'2222.2 1017.1 10.7
2016-Nov-29 00:00N 43°54' E 009°18'2020.0 1018.9 12.1
2016-Nov-28 23:00N 44°12' E 009°06'15 0.8 1018.1 13.0
2016-Nov-28 04:00N 44°24' E 008°54'4 0.5 1010.1 15.4
2016-Nov-27 19:00N 44°24' E 009°00'2424.4 1011.1 15.6
2016-Nov-27 18:00N 44°00' E 009°06'   1011.1 16.1

Dump ship's entire track history